sensor_id;sensor_type;location;lat;lon;timestamp;temperature;humidity
19403;DHT22;9837;48.888;8.998;2024-03-17T00:01:02;12.60;72.50
19403;DHT22;9837;48.888;8.998;2024-03-17T00:03:28;12.60;72.50
19403;DHT22;9837;48.888;8.998;2024-03-17T00:06:01;12.50;72.50
19403;DHT22;9837;48.888;8.998;2024-03-17T00:08:27;12.50;72.70
19403;DHT22;9837;48.888;8.998;2024-03-17T00:10:55;12.40;73.00
19403;DHT22;9837;48.888;8.998;2024-03-17T00:13:22;12.40;73.10
19403;DHT22;9837;48.888;8.998;2024-03-17T00:15:48;12.40;73.10
19403;DHT22;9837;48.888;8.998;2024-03-17T00:18:14;12.40;73.00
19403;DHT22;9837;48.888;8.998;2024-03-17T00:20:40;12.30;73.00
19403;DHT22;9837;48.888;8.998;2024-03-17T00:23:05;12.30;73.10
19403;DHT22;9837;48.888;8.998;2024-03-17T00:25:32;12.20;72.70
19403;DHT22;9837;48.888;8.998;2024-03-17T00:27:59;12.20;71.80
19403;DHT22;9837;48.888;8.998;2024-03-17T00:32:51;12.10;72.30
19403;DHT22;9837;48.888;8.998;2024-03-17T00:35:16;12.20;72.30
19403;DHT22;9837;48.888;8.998;2024-03-17T00:37:46;12.10;72.20
19403;DHT22;9837;48.888;8.998;2024-03-17T00:40:12;12.00;72.20
19403;DHT22;9837;48.888;8.998;2024-03-17T00:42:38;12.00;72.20
19403;DHT22;9837;48.888;8.998;2024-03-17T00:45:03;12.00;71.80
19403;DHT22;9837;48.888;8.998;2024-03-17T00:47:32;12.10;71.90
19403;DHT22;9837;48.888;8.998;2024-03-17T00:49:57;12.10;72.00
19403;DHT22;9837;48.888;8.998;2024-03-17T00:52:22;12.10;71.70
19403;DHT22;9837;48.888;8.998;2024-03-17T00:54:48;12.10;71.60
19403;DHT22;9837;48.888;8.998;2024-03-17T00:57:14;12.00;71.90
19403;DHT22;9837;48.888;8.998;2024-03-17T00:59:41;11.90;72.50
19403;DHT22;9837;48.888;8.998;2024-03-17T01:02:10;11.90;72.90
19403;DHT22;9837;48.888;8.998;2024-03-17T01:04:37;11.90;73.20
19403;DHT22;9837;48.888;8.998;2024-03-17T01:07:03;11.90;73.60
19403;DHT22;9837;48.888;8.998;2024-03-17T01:09:29;11.90;73.90
19403;DHT22;9837;48.888;8.998;2024-03-17T01:11:55;11.90;74.10
19403;DHT22;9837;48.888;8.998;2024-03-17T01:19:12;11.90;74.20
19403;DHT22;9837;48.888;8.998;2024-03-17T01:21:38;11.90;74.60
19403;DHT22;9837;48.888;8.998;2024-03-17T01:24:03;11.90;74.90
19403;DHT22;9837;48.888;8.998;2024-03-17T01:26:29;11.80;75.10
19403;DHT22;9837;48.888;8.998;2024-03-17T01:28:55;11.90;75.30
19403;DHT22;9837;48.888;8.998;2024-03-17T01:31:20;11.90;75.00
19403;DHT22;9837;48.888;8.998;2024-03-17T01:33:46;11.90;74.90
19403;DHT22;9837;48.888;8.998;2024-03-17T01:36:12;11.80;74.90
19403;DHT22;9837;48.888;8.998;2024-03-17T01:38:38;11.80;75.10
19403;DHT22;9837;48.888;8.998;2024-03-17T01:41:03;11.90;75.20
19403;DHT22;9837;48.888;8.998;2024-03-17T01:43:30;11.90;75.10
19403;DHT22;9837;48.888;8.998;2024-03-17T01:45:56;11.80;74.90
19403;DHT22;9837;48.888;8.998;2024-03-17T01:48:23;11.70;74.60
19403;DHT22;9837;48.888;8.998;2024-03-17T01:50:52;11.60;74.20
19403;DHT22;9837;48.888;8.998;2024-03-17T01:53:18;11.60;74.40
19403;DHT22;9837;48.888;8.998;2024-03-17T01:55:46;11.60;74.30
19403;DHT22;9837;48.888;8.998;2024-03-17T01:58:12;11.60;74.20
19403;DHT22;9837;48.888;8.998;2024-03-17T02:00:38;11.50;74.50
19403;DHT22;9837;48.888;8.998;2024-03-17T02:03:05;11.50;74.80
19403;DHT22;9837;48.888;8.998;2024-03-17T02:05:31;11.40;74.80
19403;DHT22;9837;48.888;8.998;2024-03-17T02:07:57;11.40;75.20
19403;DHT22;9837;48.888;8.998;2024-03-17T02:10:23;11.40;75.50
19403;DHT22;9837;48.888;8.998;2024-03-17T02:12:48;11.50;75.60
19403;DHT22;9837;48.888;8.998;2024-03-17T02:15:14;11.50;75.60
19403;DHT22;9837;48.888;8.998;2024-03-17T02:17:40;11.50;75.60
19403;DHT22;9837;48.888;8.998;2024-03-17T02:22:36;11.60;75.10
19403;DHT22;9837;48.888;8.998;2024-03-17T02:25:02;11.60;74.90
19403;DHT22;9837;48.888;8.998;2024-03-17T02:27:28;11.50;75.00
19403;DHT22;9837;48.888;8.998;2024-03-17T02:32:20;11.40;75.00
19403;DHT22;9837;48.888;8.998;2024-03-17T02:34:47;11.40;75.10
19403;DHT22;9837;48.888;8.998;2024-03-17T02:37:13;11.40;75.30
19403;DHT22;9837;48.888;8.998;2024-03-17T02:39:39;11.40;75.50
19403;DHT22;9837;48.888;8.998;2024-03-17T02:42:07;11.40;75.50
19403;DHT22;9837;48.888;8.998;2024-03-17T02:44:34;11.40;75.60
19403;DHT22;9837;48.888;8.998;2024-03-17T02:47:00;11.50;75.50
19403;DHT22;9837;48.888;8.998;2024-03-17T02:49:27;11.50;75.60
19403;DHT22;9837;48.888;8.998;2024-03-17T02:51:55;11.50;75.80
19403;DHT22;9837;48.888;8.998;2024-03-17T02:54:21;11.50;75.80
19403;DHT22;9837;48.888;8.998;2024-03-17T02:56:48;11.50;75.80
19403;DHT22;9837;48.888;8.998;2024-03-17T02:59:14;11.50;75.90
19403;DHT22;9837;48.888;8.998;2024-03-17T03:04:05;11.50;75.70
19403;DHT22;9837;48.888;8.998;2024-03-17T03:06:33;11.50;75.60
19403;DHT22;9837;48.888;8.998;2024-03-17T03:08:58;11.50;75.60
19403;DHT22;9837;48.888;8.998;2024-03-17T03:11:24;11.40;75.60
19403;DHT22;9837;48.888;8.998;2024-03-17T03:13:49;11.40;75.50
19403;DHT22;9837;48.888;8.998;2024-03-17T03:16:15;11.40;75.20
19403;DHT22;9837;48.888;8.998;2024-03-17T03:18:41;11.40;75.10
19403;DHT22;9837;48.888;8.998;2024-03-17T03:21:07;11.40;74.90
19403;DHT22;9837;48.888;8.998;2024-03-17T03:23:33;11.30;75.00
19403;DHT22;9837;48.888;8.998;2024-03-17T03:26:01;11.20;74.90
19403;DHT22;9837;48.888;8.998;2024-03-17T03:28:29;11.20;74.80
19403;DHT22;9837;48.888;8.998;2024-03-17T03:30:55;11.10;75.00
19403;DHT22;9837;48.888;8.998;2024-03-17T03:33:21;11.10;75.00
19403;DHT22;9837;48.888;8.998;2024-03-17T03:35:46;11.10;75.00
19403;DHT22;9837;48.888;8.998;2024-03-17T03:38:13;11.00;74.90
19403;DHT22;9837;48.888;8.998;2024-03-17T03:40:39;11.00;74.90
19403;DHT22;9837;48.888;8.998;2024-03-17T03:43:05;11.00;75.10
19403;DHT22;9837;48.888;8.998;2024-03-17T03:45:31;11.10;75.20
19403;DHT22;9837;48.888;8.998;2024-03-17T03:47:56;11.10;75.10
19403;DHT22;9837;48.888;8.998;2024-03-17T03:52:48;11.20;74.70
19403;DHT22;9837;48.888;8.998;2024-03-17T03:55:16;11.20;74.80
19403;DHT22;9837;48.888;8.998;2024-03-17T03:57:43;11.20;75.00
19403;DHT22;9837;48.888;8.998;2024-03-17T04:00:11;11.20;75.20
19403;DHT22;9837;48.888;8.998;2024-03-17T04:02:50;11.30;75.40
19403;DHT22;9837;48.888;8.998;2024-03-17T04:05:16;11.30;75.50
19403;DHT22;9837;48.888;8.998;2024-03-17T04:07:42;11.30;75.30
19403;DHT22;9837;48.888;8.998;2024-03-17T04:10:09;11.30;75.10
19403;DHT22;9837;48.888;8.998;2024-03-17T04:12:35;11.30;74.80
19403;DHT22;9837;48.888;8.998;2024-03-17T04:15:01;11.30;74.70
19403;DHT22;9837;48.888;8.998;2024-03-17T04:17:27;11.20;75.00
19403;DHT22;9837;48.888;8.998;2024-03-17T04:19:53;11.20;75.20
19403;DHT22;9837;48.888;8.998;2024-03-17T04:22:20;11.20;75.60
19403;DHT22;9837;48.888;8.998;2024-03-17T04:24:47;11.20;75.70
19403;DHT22;9837;48.888;8.998;2024-03-17T04:27:18;11.20;75.60
19403;DHT22;9837;48.888;8.998;2024-03-17T04:29:46;11.20;75.50
19403;DHT22;9837;48.888;8.998;2024-03-17T04:32:13;11.20;75.60
19403;DHT22;9837;48.888;8.998;2024-03-17T04:34:38;11.20;75.70
19403;DHT22;9837;48.888;8.998;2024-03-17T04:37:04;11.20;75.60
19403;DHT22;9837;48.888;8.998;2024-03-17T04:39:30;11.20;75.70
19403;DHT22;9837;48.888;8.998;2024-03-17T04:41:57;11.10;75.80
19403;DHT22;9837;48.888;8.998;2024-03-17T04:44:22;11.10;76.20
19403;DHT22;9837;48.888;8.998;2024-03-17T04:46:48;11.00;76.40
19403;DHT22;9837;48.888;8.998;2024-03-17T04:49:14;11.00;76.70
19403;DHT22;9837;48.888;8.998;2024-03-17T04:51:39;11.00;76.70
19403;DHT22;9837;48.888;8.998;2024-03-17T04:54:05;11.00;76.60
19403;DHT22;9837;48.888;8.998;2024-03-17T04:56:32;11.00;76.20
19403;DHT22;9837;48.888;8.998;2024-03-17T04:58:58;11.00;75.80
19403;DHT22;9837;48.888;8.998;2024-03-17T05:01:23;10.90;75.50
19403;DHT22;9837;48.888;8.998;2024-03-17T05:03:53;10.90;75.20
19403;DHT22;9837;48.888;8.998;2024-03-17T05:06:18;10.80;75.00
19403;DHT22;9837;48.888;8.998;2024-03-17T05:08:44;10.80;75.00
19403;DHT22;9837;48.888;8.998;2024-03-17T05:11:09;10.80;74.80
19403;DHT22;9837;48.888;8.998;2024-03-17T05:13:37;10.70;74.80
19403;DHT22;9837;48.888;8.998;2024-03-17T05:16:05;10.70;74.90
19403;DHT22;9837;48.888;8.998;2024-03-17T05:18:31;10.60;74.70
19403;DHT22;9837;48.888;8.998;2024-03-17T05:21:03;10.60;74.70
19403;DHT22;9837;48.888;8.998;2024-03-17T05:23:29;10.60;75.40
19403;DHT22;9837;48.888;8.998;2024-03-17T05:25:56;10.60;75.00
19403;DHT22;9837;48.888;8.998;2024-03-17T05:28:23;10.60;75.00
19403;DHT22;9837;48.888;8.998;2024-03-17T05:30:49;10.50;75.60
19403;DHT22;9837;48.888;8.998;2024-03-17T05:33:16;10.50;75.00
19403;DHT22;9837;48.888;8.998;2024-03-17T05:35:49;10.50;75.70
19403;DHT22;9837;48.888;8.998;2024-03-17T05:38:14;10.50;75.90
19403;DHT22;9837;48.888;8.998;2024-03-17T05:40:40;10.40;76.40
19403;DHT22;9837;48.888;8.998;2024-03-17T05:43:06;10.30;77.00
19403;DHT22;9837;48.888;8.998;2024-03-17T05:45:32;10.20;77.40
19403;DHT22;9837;48.888;8.998;2024-03-17T05:47:57;10.30;78.20
19403;DHT22;9837;48.888;8.998;2024-03-17T05:50:23;10.20;78.30
19403;DHT22;9837;48.888;8.998;2024-03-17T05:52:48;10.20;79.10
19403;DHT22;9837;48.888;8.998;2024-03-17T05:55:14;10.20;79.10
19403;DHT22;9837;48.888;8.998;2024-03-17T05:57:39;10.30;78.70
19403;DHT22;9837;48.888;8.998;2024-03-17T06:00:07;10.40;78.20
19403;DHT22;9837;48.888;8.998;2024-03-17T06:02:32;10.50;78.20
19403;DHT22;9837;48.888;8.998;2024-03-17T06:04:58;10.50;78.90
19403;DHT22;9837;48.888;8.998;2024-03-17T06:07:29;10.90;78.30
19403;DHT22;9837;48.888;8.998;2024-03-17T06:12:21;11.90;80.60
19403;DHT22;9837;48.888;8.998;2024-03-17T06:17:14;14.60;69.90
19403;DHT22;9837;48.888;8.998;2024-03-17T06:19:40;16.00;64.90
19403;DHT22;9837;48.888;8.998;2024-03-17T06:22:05;17.30;59.50
19403;DHT22;9837;48.888;8.998;2024-03-17T06:24:31;18.50;56.30
19403;DHT22;9837;48.888;8.998;2024-03-17T06:29:22;20.00;51.70
19403;DHT22;9837;48.888;8.998;2024-03-17T06:34:14;21.20;49.10
19403;DHT22;9837;48.888;8.998;2024-03-17T06:39:07;21.80;47.60
19403;DHT22;9837;48.888;8.998;2024-03-17T06:41:33;22.10;46.60
19403;DHT22;9837;48.888;8.998;2024-03-17T06:46:24;22.10;46.20
19403;DHT22;9837;48.888;8.998;2024-03-17T06:48:50;22.20;46.10
19403;DHT22;9837;48.888;8.998;2024-03-17T06:51:16;22.10;45.90
19403;DHT22;9837;48.888;8.998;2024-03-17T06:53:42;21.90;46.20
19403;DHT22;9837;48.888;8.998;2024-03-17T06:56:07;21.70;46.40
19403;DHT22;9837;48.888;8.998;2024-03-17T06:58:33;21.10;47.40
19403;DHT22;9837;48.888;8.998;2024-03-17T07:01:00;20.60;48.90
19403;DHT22;9837;48.888;8.998;2024-03-17T07:03:27;19.90;49.70
19403;DHT22;9837;48.888;8.998;2024-03-17T07:05:54;18.70;51.70
19403;DHT22;9837;48.888;8.998;2024-03-17T07:08:21;17.90;54.10
19403;DHT22;9837;48.888;8.998;2024-03-17T07:11:04;17.30;56.00
19403;DHT22;9837;48.888;8.998;2024-03-17T07:13:32;16.50;57.70
19403;DHT22;9837;48.888;8.998;2024-03-17T07:15:58;16.00;59.50
19403;DHT22;9837;48.888;8.998;2024-03-17T07:18:27;15.70;60.20
19403;DHT22;9837;48.888;8.998;2024-03-17T07:20:57;15.60;61.70
19403;DHT22;9837;48.888;8.998;2024-03-17T07:23:23;15.30;62.50
19403;DHT22;9837;48.888;8.998;2024-03-17T07:25:56;15.20;63.60
19403;DHT22;9837;48.888;8.998;2024-03-17T07:28:22;15.30;64.20
19403;DHT22;9837;48.888;8.998;2024-03-17T07:30:52;15.50;63.60
19403;DHT22;9837;48.888;8.998;2024-03-17T07:33:19;15.70;63.40
19403;DHT22;9837;48.888;8.998;2024-03-17T07:35:48;16.00;63.20
19403;DHT22;9837;48.888;8.998;2024-03-17T07:38:14;16.10;61.50
19403;DHT22;9837;48.888;8.998;2024-03-17T07:40:41;16.20;61.20
19403;DHT22;9837;48.888;8.998;2024-03-17T07:43:06;16.20;61.20
19403;DHT22;9837;48.888;8.998;2024-03-17T07:45:32;16.10;61.70
19403;DHT22;9837;48.888;8.998;2024-03-17T07:47:57;16.10;61.60
19403;DHT22;9837;48.888;8.998;2024-03-17T07:50:24;16.30;61.70
19403;DHT22;9837;48.888;8.998;2024-03-17T07:52:49;16.50;61.10
19403;DHT22;9837;48.888;8.998;2024-03-17T07:55:15;16.50;60.70
19403;DHT22;9837;48.888;8.998;2024-03-17T07:57:41;16.60;60.30
19403;DHT22;9837;48.888;8.998;2024-03-17T08:00:07;16.60;61.00
19403;DHT22;9837;48.888;8.998;2024-03-17T08:02:44;16.30;62.40
19403;DHT22;9837;48.888;8.998;2024-03-17T08:05:10;16.00;63.40
19403;DHT22;9837;48.888;8.998;2024-03-17T08:07:36;15.90;64.00
19403;DHT22;9837;48.888;8.998;2024-03-17T08:10:01;16.00;63.80
19403;DHT22;9837;48.888;8.998;2024-03-17T08:12:29;15.90;64.40
19403;DHT22;9837;48.888;8.998;2024-03-17T08:14:55;15.90;64.50
19403;DHT22;9837;48.888;8.998;2024-03-17T08:17:20;15.80;63.90
19403;DHT22;9837;48.888;8.998;2024-03-17T08:19:46;15.70;64.50
19403;DHT22;9837;48.888;8.998;2024-03-17T08:22:12;15.60;65.50
19403;DHT22;9837;48.888;8.998;2024-03-17T08:27:04;15.70;65.70
19403;DHT22;9837;48.888;8.998;2024-03-17T08:31:55;15.70;66.30
19403;DHT22;9837;48.888;8.998;2024-03-17T08:36:47;15.90;66.10
19403;DHT22;9837;48.888;8.998;2024-03-17T08:44:04;15.60;66.00
19403;DHT22;9837;48.888;8.998;2024-03-17T08:46:31;15.30;67.00
19403;DHT22;9837;48.888;8.998;2024-03-17T08:48:57;15.20;67.80
19403;DHT22;9837;48.888;8.998;2024-03-17T08:51:23;15.10;68.80
19403;DHT22;9837;48.888;8.998;2024-03-17T08:53:49;15.10;68.80
19403;DHT22;9837;48.888;8.998;2024-03-17T08:56:14;15.50;68.40
19403;DHT22;9837;48.888;8.998;2024-03-17T08:58:40;15.90;66.70
19403;DHT22;9837;48.888;8.998;2024-03-17T09:01:08;15.90;66.40
19403;DHT22;9837;48.888;8.998;2024-03-17T09:03:35;16.00;66.80
19403;DHT22;9837;48.888;8.998;2024-03-17T09:08:27;15.50;68.00
19403;DHT22;9837;48.888;8.998;2024-03-17T09:10:54;15.30;69.30
19403;DHT22;9837;48.888;8.998;2024-03-17T09:13:24;15.20;69.90
19403;DHT22;9837;48.888;8.998;2024-03-17T09:15:51;15.40;70.10
19403;DHT22;9837;48.888;8.998;2024-03-17T09:18:17;15.60;69.50
19403;DHT22;9837;48.888;8.998;2024-03-17T09:20:42;15.60;69.80
19403;DHT22;9837;48.888;8.998;2024-03-17T09:23:08;15.50;69.80
19403;DHT22;9837;48.888;8.998;2024-03-17T09:25:34;15.70;69.80
19403;DHT22;9837;48.888;8.998;2024-03-17T09:27:59;15.80;69.60
19403;DHT22;9837;48.888;8.998;2024-03-17T09:30:25;15.70;69.20
19403;DHT22;9837;48.888;8.998;2024-03-17T09:32:50;15.60;69.80
19403;DHT22;9837;48.888;8.998;2024-03-17T09:37:42;15.50;69.70
19403;DHT22;9837;48.888;8.998;2024-03-17T09:40:13;15.60;70.10
19403;DHT22;9837;48.888;8.998;2024-03-17T09:42:41;16.00;70.50
19403;DHT22;9837;48.888;8.998;2024-03-17T09:45:09;16.20;69.50
19403;DHT22;9837;48.888;8.998;2024-03-17T09:47:36;16.20;68.30
19403;DHT22;9837;48.888;8.998;2024-03-17T09:50:02;16.50;68.10
19403;DHT22;9837;48.888;8.998;2024-03-17T09:52:28;16.70;67.20
19403;DHT22;9837;48.888;8.998;2024-03-17T09:54:59;16.80;65.30
19403;DHT22;9837;48.888;8.998;2024-03-17T09:57:26;16.90;66.70
19403;DHT22;9837;48.888;8.998;2024-03-17T09:59:53;16.90;67.30
19403;DHT22;9837;48.888;8.998;2024-03-17T10:02:19;17.00;67.90
19403;DHT22;9837;48.888;8.998;2024-03-17T10:04:45;17.10;67.50
19403;DHT22;9837;48.888;8.998;2024-03-17T10:12:04;17.00;67.80
19403;DHT22;9837;48.888;8.998;2024-03-17T10:14:31;16.90;67.80
19403;DHT22;9837;48.888;8.998;2024-03-17T10:16:56;16.90;65.70
19403;DHT22;9837;48.888;8.998;2024-03-17T10:19:22;16.70;66.60
19403;DHT22;9837;48.888;8.998;2024-03-17T10:21:49;16.60;67.60
19403;DHT22;9837;48.888;8.998;2024-03-17T10:24:24;16.50;68.10
19403;DHT22;9837;48.888;8.998;2024-03-17T10:26:54;16.60;68.60
19403;DHT22;9837;48.888;8.998;2024-03-17T10:29:24;16.70;67.80
19403;DHT22;9837;48.888;8.998;2024-03-17T10:31:55;16.90;67.30
19403;DHT22;9837;48.888;8.998;2024-03-17T10:34:21;16.80;67.50
19403;DHT22;9837;48.888;8.998;2024-03-17T10:36:50;16.90;68.00
19403;DHT22;9837;48.888;8.998;2024-03-17T10:39:24;17.00;66.40
19403;DHT22;9837;48.888;8.998;2024-03-17T10:41:57;16.90;66.60
19403;DHT22;9837;48.888;8.998;2024-03-17T10:46:51;17.70;62.60
19403;DHT22;9837;48.888;8.998;2024-03-17T10:49:19;18.10;60.50
19403;DHT22;9837;48.888;8.998;2024-03-17T10:51:47;18.10;60.20
19403;DHT22;9837;48.888;8.998;2024-03-17T10:54:26;17.80;60.30
19403;DHT22;9837;48.888;8.998;2024-03-17T10:56:55;17.70;60.90
19403;DHT22;9837;48.888;8.998;2024-03-17T10:59:28;17.80;59.20
19403;DHT22;9837;48.888;8.998;2024-03-17T11:01:59;17.70;58.60
19403;DHT22;9837;48.888;8.998;2024-03-17T11:04:26;17.70;57.50
19403;DHT22;9837;48.888;8.998;2024-03-17T11:06:52;17.90;56.00
19403;DHT22;9837;48.888;8.998;2024-03-17T11:09:18;18.00;55.40
19403;DHT22;9837;48.888;8.998;2024-03-17T11:14:18;17.70;54.70
19403;DHT22;9837;48.888;8.998;2024-03-17T11:16:47;17.70;57.20
19403;DHT22;9837;48.888;8.998;2024-03-17T11:19:17;17.70;56.20
19403;DHT22;9837;48.888;8.998;2024-03-17T11:21:43;17.60;56.10
19403;DHT22;9837;48.888;8.998;2024-03-17T11:24:19;17.50;56.10
19403;DHT22;9837;48.888;8.998;2024-03-17T11:26:45;17.40;56.20
19403;DHT22;9837;48.888;8.998;2024-03-17T11:29:30;17.20;56.90
19403;DHT22;9837;48.888;8.998;2024-03-17T11:31:58;17.00;57.30
19403;DHT22;9837;48.888;8.998;2024-03-17T11:34:34;17.20;57.90
19403;DHT22;9837;48.888;8.998;2024-03-17T11:37:01;17.30;56.70
19403;DHT22;9837;48.888;8.998;2024-03-17T11:39:48;17.60;56.10
19403;DHT22;9837;48.888;8.998;2024-03-17T11:42:34;17.90;55.20
19403;DHT22;9837;48.888;8.998;2024-03-17T11:45:04;18.10;54.90
19403;DHT22;9837;48.888;8.998;2024-03-17T11:47:38;18.10;53.60
19403;DHT22;9837;48.888;8.998;2024-03-17T11:50:05;18.30;53.70
19403;DHT22;9837;48.888;8.998;2024-03-17T11:52:31;18.40;52.50
19403;DHT22;9837;48.888;8.998;2024-03-17T11:54:56;18.50;52.00
19403;DHT22;9837;48.888;8.998;2024-03-17T11:57:24;18.60;52.30
19403;DHT22;9837;48.888;8.998;2024-03-17T11:59:50;18.50;52.30
19403;DHT22;9837;48.888;8.998;2024-03-17T12:02:23;18.40;51.90
19403;DHT22;9837;48.888;8.998;2024-03-17T12:04:57;18.40;52.10
19403;DHT22;9837;48.888;8.998;2024-03-17T12:07:23;18.20;52.50
19403;DHT22;9837;48.888;8.998;2024-03-17T12:09:50;18.20;53.00
19403;DHT22;9837;48.888;8.998;2024-03-17T12:12:30;18.60;52.40
19403;DHT22;9837;48.888;8.998;2024-03-17T12:15:03;18.80;51.70
19403;DHT22;9837;48.888;8.998;2024-03-17T12:17:29;19.20;51.90
19403;DHT22;9837;48.888;8.998;2024-03-17T12:19:55;19.10;51.40
19403;DHT22;9837;48.888;8.998;2024-03-17T12:22:24;18.80;52.00
19403;DHT22;9837;48.888;8.998;2024-03-17T12:24:54;18.60;52.10
19403;DHT22;9837;48.888;8.998;2024-03-17T12:27:21;18.80;52.10
19403;DHT22;9837;48.888;8.998;2024-03-17T12:29:54;19.00;51.90
19403;DHT22;9837;48.888;8.998;2024-03-17T12:32:24;18.90;52.40
19403;DHT22;9837;48.888;8.998;2024-03-17T12:34:52;19.00;52.50
19403;DHT22;9837;48.888;8.998;2024-03-17T12:39:44;19.20;50.60
19403;DHT22;9837;48.888;8.998;2024-03-17T12:42:12;19.20;51.20
19403;DHT22;9837;48.888;8.998;2024-03-17T12:44:53;19.10;51.30
19403;DHT22;9837;48.888;8.998;2024-03-17T12:47:20;19.00;51.90
19403;DHT22;9837;48.888;8.998;2024-03-17T12:49:56;19.00;51.90
19403;DHT22;9837;48.888;8.998;2024-03-17T12:52:29;18.90;52.00
19403;DHT22;9837;48.888;8.998;2024-03-17T12:55:00;18.90;52.10
19403;DHT22;9837;48.888;8.998;2024-03-17T12:57:45;18.90;52.30
19403;DHT22;9837;48.888;8.998;2024-03-17T13:00:29;18.80;52.30
19403;DHT22;9837;48.888;8.998;2024-03-17T13:03:02;18.60;52.60
19403;DHT22;9837;48.888;8.998;2024-03-17T13:05:29;18.30;53.60
19403;DHT22;9837;48.888;8.998;2024-03-17T13:07:55;18.20;53.10
19403;DHT22;9837;48.888;8.998;2024-03-17T13:10:26;18.40;52.50
19403;DHT22;9837;48.888;8.998;2024-03-17T13:12:59;18.70;52.20
19403;DHT22;9837;48.888;8.998;2024-03-17T13:15:29;18.80;52.60
19403;DHT22;9837;48.888;8.998;2024-03-17T13:17:57;18.80;52.20
19403;DHT22;9837;48.888;8.998;2024-03-17T13:20:22;18.80;52.30
19403;DHT22;9837;48.888;8.998;2024-03-17T13:22:48;18.90;52.80
19403;DHT22;9837;48.888;8.998;2024-03-17T13:25:17;19.10;52.00
19403;DHT22;9837;48.888;8.998;2024-03-17T13:27:44;19.00;51.80
19403;DHT22;9837;48.888;8.998;2024-03-17T13:30:17;18.90;52.00
19403;DHT22;9837;48.888;8.998;2024-03-17T13:32:44;19.00;51.70
19403;DHT22;9837;48.888;8.998;2024-03-17T13:35:19;19.20;52.00
19403;DHT22;9837;48.888;8.998;2024-03-17T13:40:13;19.40;50.90
19403;DHT22;9837;48.888;8.998;2024-03-17T13:42:45;19.50;50.40
19403;DHT22;9837;48.888;8.998;2024-03-17T13:45:12;19.60;50.20
19403;DHT22;9837;48.888;8.998;2024-03-17T13:50:04;19.40;50.70
19403;DHT22;9837;48.888;8.998;2024-03-17T13:52:35;19.70;51.70
19403;DHT22;9837;48.888;8.998;2024-03-17T13:55:01;20.10;49.90
19403;DHT22;9837;48.888;8.998;2024-03-17T13:57:28;20.10;49.60
19403;DHT22;9837;48.888;8.998;2024-03-17T14:04:48;20.20;49.10
19403;DHT22;9837;48.888;8.998;2024-03-17T14:07:14;19.90;49.30
19403;DHT22;9837;48.888;8.998;2024-03-17T14:09:40;19.80;49.90
19403;DHT22;9837;48.888;8.998;2024-03-17T14:12:07;19.70;49.90
19403;DHT22;9837;48.888;8.998;2024-03-17T14:14:33;19.70;49.90
19403;DHT22;9837;48.888;8.998;2024-03-17T14:16:58;19.80;50.70
19403;DHT22;9837;48.888;8.998;2024-03-17T14:19:24;19.90;50.20
19403;DHT22;9837;48.888;8.998;2024-03-17T14:24:16;19.30;51.20
19403;DHT22;9837;48.888;8.998;2024-03-17T14:26:42;19.40;51.40
19403;DHT22;9837;48.888;8.998;2024-03-17T14:29:07;19.30;51.20
19403;DHT22;9837;48.888;8.998;2024-03-17T14:31:33;19.30;51.80
19403;DHT22;9837;48.888;8.998;2024-03-17T14:34:02;19.40;51.20
19403;DHT22;9837;48.888;8.998;2024-03-17T14:36:29;19.60;51.00
19403;DHT22;9837;48.888;8.998;2024-03-17T14:38:56;19.70;50.00
19403;DHT22;9837;48.888;8.998;2024-03-17T14:41:21;19.70;50.10
19403;DHT22;9837;48.888;8.998;2024-03-17T14:43:47;19.40;50.80
19403;DHT22;9837;48.888;8.998;2024-03-17T14:46:12;19.00;51.20
19403;DHT22;9837;48.888;8.998;2024-03-17T14:48:39;19.30;51.70
19403;DHT22;9837;48.888;8.998;2024-03-17T14:51:05;19.30;50.70
19403;DHT22;9837;48.888;8.998;2024-03-17T14:53:30;18.70;52.00
19403;DHT22;9837;48.888;8.998;2024-03-17T14:55:56;18.60;53.30
19403;DHT22;9837;48.888;8.998;2024-03-17T14:58:21;19.00;51.90
19403;DHT22;9837;48.888;8.998;2024-03-17T15:03:13;19.60;50.30
19403;DHT22;9837;48.888;8.998;2024-03-17T15:05:39;19.80;50.30
19403;DHT22;9837;48.888;8.998;2024-03-17T15:08:05;19.50;50.40
19403;DHT22;9837;48.888;8.998;2024-03-17T15:10:31;19.50;51.00
19403;DHT22;9837;48.888;8.998;2024-03-17T15:12:56;19.60;50.00
19403;DHT22;9837;48.888;8.998;2024-03-17T15:15:22;19.80;50.10
19403;DHT22;9837;48.888;8.998;2024-03-17T15:17:47;20.00;50.00
19403;DHT22;9837;48.888;8.998;2024-03-17T15:20:16;20.10;48.90
19403;DHT22;9837;48.888;8.998;2024-03-17T15:22:45;20.00;49.10
19403;DHT22;9837;48.888;8.998;2024-03-17T15:25:12;19.80;49.60
19403;DHT22;9837;48.888;8.998;2024-03-17T15:27:40;19.60;50.20
19403;DHT22;9837;48.888;8.998;2024-03-17T15:30:10;19.10;50.50
19403;DHT22;9837;48.888;8.998;2024-03-17T15:32:36;18.80;51.40
19403;DHT22;9837;48.888;8.998;2024-03-17T15:37:28;18.40;52.40
19403;DHT22;9837;48.888;8.998;2024-03-17T15:39:54;18.30;52.50
19403;DHT22;9837;48.888;8.998;2024-03-17T15:42:22;18.40;52.70
19403;DHT22;9837;48.888;8.998;2024-03-17T15:44:47;18.50;52.40
19403;DHT22;9837;48.888;8.998;2024-03-17T15:47:13;18.50;52.30
19403;DHT22;9837;48.888;8.998;2024-03-17T15:49:39;18.80;52.30
19403;DHT22;9837;48.888;8.998;2024-03-17T15:52:05;18.90;51.90
19403;DHT22;9837;48.888;8.998;2024-03-17T15:54:30;19.00;52.00
19403;DHT22;9837;48.888;8.998;2024-03-17T15:56:56;18.90;51.50
19403;DHT22;9837;48.888;8.998;2024-03-17T15:59:21;18.70;52.00
19403;DHT22;9837;48.888;8.998;2024-03-17T16:01:48;18.70;52.50
19403;DHT22;9837;48.888;8.998;2024-03-17T16:04:17;18.50;53.40
19403;DHT22;9837;48.888;8.998;2024-03-17T16:06:44;18.10;54.20
19403;DHT22;9837;48.888;8.998;2024-03-17T16:09:13;17.90;55.10
19403;DHT22;9837;48.888;8.998;2024-03-17T16:11:39;17.90;55.60
19403;DHT22;9837;48.888;8.998;2024-03-17T16:14:06;17.70;56.00
19403;DHT22;9837;48.888;8.998;2024-03-17T16:16:33;17.70;55.70
19403;DHT22;9837;48.888;8.998;2024-03-17T16:18:59;17.60;55.70
19403;DHT22;9837;48.888;8.998;2024-03-17T16:21:26;17.60;55.90
19403;DHT22;9837;48.888;8.998;2024-03-17T16:23:56;17.70;55.70
19403;DHT22;9837;48.888;8.998;2024-03-17T16:26:28;17.90;55.40
19403;DHT22;9837;48.888;8.998;2024-03-17T16:28:54;18.00;54.40
19403;DHT22;9837;48.888;8.998;2024-03-17T16:31:21;18.00;54.10
19403;DHT22;9837;48.888;8.998;2024-03-17T16:33:47;18.00;54.40
19403;DHT22;9837;48.888;8.998;2024-03-17T16:36:15;18.10;54.60
19403;DHT22;9837;48.888;8.998;2024-03-17T16:41:06;18.30;53.90
19403;DHT22;9837;48.888;8.998;2024-03-17T16:43:56;18.30;54.40
19403;DHT22;9837;48.888;8.998;2024-03-17T16:46:45;18.20;54.00
19403;DHT22;9837;48.888;8.998;2024-03-17T16:49:20;18.20;54.00
19403;DHT22;9837;48.888;8.998;2024-03-17T16:51:48;18.10;54.30
19403;DHT22;9837;48.888;8.998;2024-03-17T16:54:14;18.00;54.60
19403;DHT22;9837;48.888;8.998;2024-03-17T16:56:41;18.10;54.50
19403;DHT22;9837;48.888;8.998;2024-03-17T16:59:07;18.10;54.70
19403;DHT22;9837;48.888;8.998;2024-03-17T17:01:32;18.10;54.70
19403;DHT22;9837;48.888;8.998;2024-03-17T17:04:04;18.10;54.60
19403;DHT22;9837;48.888;8.998;2024-03-17T17:06:36;18.00;54.40